sensor_id;sensor_type;location;lat;lon;timestamp;P1;durP1;ratioP1;P2;durP2;ratioP2
56581;SDS011;42463;52.214;21.238;2022-07-10T00:00:04;9.00;;;4.40;;
56581;SDS011;42463;52.214;21.238;2022-07-10T00:02:42;5.60;;;4.90;;
56581;SDS011;42463;52.214;21.238;2022-07-10T00:05:10;4.60;;;4.00;;
56581;SDS011;42463;52.214;21.238;2022-07-10T00:07:36;5.20;;;4.00;;
56581;SDS011;42463;52.214;21.238;2022-07-10T00:10:03;5.90;;;4.60;;
56581;SDS011;42463;52.214;21.238;2022-07-10T00:12:30;7.90;;;4.60;;
56581;SDS011;42463;52.214;21.238;2022-07-10T00:14:56;6.60;;;4.00;;
56581;SDS011;42463;52.214;21.238;2022-07-10T00:17:22;6.00;;;4.30;;
56581;SDS011;42463;52.214;21.238;2022-07-10T00:19:48;5.10;;;4.30;;
56581;SDS011;42463;52.214;21.238;2022-07-10T00:22:15;6.00;;;4.40;;
56581;SDS011;42463;52.214;21.238;2022-07-10T00:24:41;6.20;;;4.30;;
56581;SDS011;42463;52.214;21.238;2022-07-10T00:27:07;7.30;;;4.60;;
56581;SDS011;42463;52.214;21.238;2022-07-10T00:29:34;5.90;;;4.70;;
56581;SDS011;42463;52.214;21.238;2022-07-10T00:31:59;6.30;;;3.90;;
56581;SDS011;42463;52.214;21.238;2022-07-10T00:34:26;4.20;;;3.80;;
56581;SDS011;42463;52.214;21.238;2022-07-10T00:36:52;6.90;;;4.50;;
56581;SDS011;42463;52.214;21.238;2022-07-10T00:39:18;6.40;;;4.00;;
56581;SDS011;42463;52.214;21.238;2022-07-10T00:41:45;4.50;;;4.00;;
56581;SDS011;42463;52.214;21.238;2022-07-10T00:44:10;9.50;;;3.90;;
56581;SDS011;42463;52.214;21.238;2022-07-10T00:46:36;6.20;;;4.20;;
56581;SDS011;42463;52.214;21.238;2022-07-10T00:49:03;5.60;;;4.10;;
56581;SDS011;42463;52.214;21.238;2022-07-10T00:51:30;4.00;;;3.70;;
56581;SDS011;42463;52.214;21.238;2022-07-10T00:53:57;6.00;;;3.80;;
56581;SDS011;42463;52.214;21.238;2022-07-10T00:56:24;5.90;;;3.80;;
56581;SDS011;42463;52.214;21.238;2022-07-10T00:58:51;4.60;;;3.00;;
56581;SDS011;42463;52.214;21.238;2022-07-10T01:01:51;4.50;;;3.70;;
56581;SDS011;42463;52.214;21.238;2022-07-10T01:04:18;6.40;;;3.30;;
56581;SDS011;42463;52.214;21.238;2022-07-10T01:06:44;4.30;;;3.20;;
56581;SDS011;42463;52.214;21.238;2022-07-10T01:09:10;4.10;;;3.10;;
56581;SDS011;42463;52.214;21.238;2022-07-10T01:11:37;5.00;;;3.40;;
56581;SDS011;42463;52.214;21.238;2022-07-10T01:14:04;4.30;;;3.10;;
56581;SDS011;42463;52.214;21.238;2022-07-10T01:16:30;3.50;;;3.10;;
56581;SDS011;42463;52.214;21.238;2022-07-10T01:18:58;4.00;;;3.10;;
56581;SDS011;42463;52.214;21.238;2022-07-10T01:21:28;4.90;;;3.30;;
56581;SDS011;42463;52.214;21.238;2022-07-10T01:23:55;3.30;;;3.00;;
56581;SDS011;42463;52.214;21.238;2022-07-10T01:26:22;3.70;;;2.90;;
56581;SDS011;42463;52.214;21.238;2022-07-10T01:28:50;5.20;;;3.30;;
56581;SDS011;42463;52.214;21.238;2022-07-10T01:31:18;5.40;;;3.10;;
56581;SDS011;42463;52.214;21.238;2022-07-10T01:33:44;4.30;;;3.40;;
56581;SDS011;42463;52.214;21.238;2022-07-10T01:36:11;4.60;;;3.40;;
56581;SDS011;42463;52.214;21.238;2022-07-10T01:38:37;5.10;;;3.60;;
56581;SDS011;42463;52.214;21.238;2022-07-10T01:41:04;4.20;;;3.30;;
56581;SDS011;42463;52.214;21.238;2022-07-10T01:43:31;4.80;;;3.60;;
56581;SDS011;42463;52.214;21.238;2022-07-10T01:45:57;5.50;;;3.40;;
56581;SDS011;42463;52.214;21.238;2022-07-10T01:48:23;6.10;;;3.40;;
56581;SDS011;42463;52.214;21.238;2022-07-10T01:50:49;6.50;;;3.30;;
56581;SDS011;42463;52.214;21.238;2022-07-10T01:53:15;4.80;;;3.20;;
56581;SDS011;42463;52.214;21.238;2022-07-10T01:55:41;5.60;;;3.10;;
56581;SDS011;42463;52.214;21.238;2022-07-10T01:58:07;7.30;;;3.80;;
56581;SDS011;42463;52.214;21.238;2022-07-10T02:00:33;3.90;;;3.20;;
56581;SDS011;42463;52.214;21.238;2022-07-10T02:03:00;4.30;;;3.50;;
56581;SDS011;42463;52.214;21.238;2022-07-10T02:05:43;4.30;;;3.40;;
56581;SDS011;42463;52.214;21.238;2022-07-10T02:08:09;5.60;;;3.60;;
56581;SDS011;42463;52.214;21.238;2022-07-10T02:10:35;6.00;;;3.50;;
56581;SDS011;42463;52.214;21.238;2022-07-10T02:13:01;5.50;;;3.30;;
56581;SDS011;42463;52.214;21.238;2022-07-10T02:15:27;6.60;;;3.60;;
56581;SDS011;42463;52.214;21.238;2022-07-10T02:17:53;6.20;;;3.40;;
56581;SDS011;42463;52.214;21.238;2022-07-10T02:20:19;7.20;;;3.80;;
56581;SDS011;42463;52.214;21.238;2022-07-10T02:22:46;3.40;;;3.00;;
56581;SDS011;42463;52.214;21.238;2022-07-10T02:25:11;4.40;;;3.40;;
56581;SDS011;42463;52.214;21.238;2022-07-10T02:27:38;7.00;;;3.50;;
56581;SDS011;42463;52.214;21.238;2022-07-10T02:30:05;6.20;;;3.80;;
56581;SDS011;42463;52.214;21.238;2022-07-10T02:32:32;3.80;;;3.40;;
56581;SDS011;42463;52.214;21.238;2022-07-10T02:34:58;4.40;;;3.50;;
56581;SDS011;42463;52.214;21.238;2022-07-10T02:37:24;8.00;;;4.00;;
56581;SDS011;42463;52.214;21.238;2022-07-10T02:39:50;7.40;;;3.80;;
56581;SDS011;42463;52.214;21.238;2022-07-10T02:42:16;6.30;;;3.50;;
56581;SDS011;42463;52.214;21.238;2022-07-10T02:44:42;5.70;;;3.60;;
56581;SDS011;42463;52.214;21.238;2022-07-10T02:47:08;6.20;;;3.60;;
56581;SDS011;42463;52.214;21.238;2022-07-10T02:49:35;6.40;;;3.70;;
56581;SDS011;42463;52.214;21.238;2022-07-10T02:52:00;8.40;;;3.70;;
56581;SDS011;42463;52.214;21.238;2022-07-10T02:54:27;5.70;;;3.60;;
56581;SDS011;42463;52.214;21.238;2022-07-10T02:56:53;5.40;;;3.60;;
56581;SDS011;42463;52.214;21.238;2022-07-10T02:59:19;6.70;;;3.80;;
56581;SDS011;42463;52.214;21.238;2022-07-10T03:01:46;4.90;;;3.60;;
56581;SDS011;42463;52.214;21.238;2022-07-10T03:04:12;4.60;;;3.60;;
56581;SDS011;42463;52.214;21.238;2022-07-10T03:06:38;5.90;;;3.60;;
56581;SDS011;42463;52.214;21.238;2022-07-10T03:09:04;5.80;;;3.80;;
56581;SDS011;42463;52.214;21.238;2022-07-10T03:11:30;5.90;;;3.50;;
56581;SDS011;42463;52.214;21.238;2022-07-10T03:13:56;4.60;;;3.30;;
56581;SDS011;42463;52.214;21.238;2022-07-10T03:16:22;5.20;;;3.40;;
56581;SDS011;42463;52.214;21.238;2022-07-10T03:18:48;8.60;;;3.40;;
56581;SDS011;42463;52.214;21.238;2022-07-10T03:21:13;6.00;;;3.50;;
56581;SDS011;42463;52.214;21.238;2022-07-10T03:23:39;5.00;;;3.40;;
56581;SDS011;42463;52.214;21.238;2022-07-10T03:26:06;4.80;;;3.40;;
56581;SDS011;42463;52.214;21.238;2022-07-10T03:28:32;5.50;;;3.80;;
56581;SDS011;42463;52.214;21.238;2022-07-10T03:30:58;6.10;;;3.70;;
56581;SDS011;42463;52.214;21.238;2022-07-10T03:33:25;4.80;;;3.50;;
56581;SDS011;42463;52.214;21.238;2022-07-10T03:35:51;6.50;;;3.70;;
56581;SDS011;42463;52.214;21.238;2022-07-10T03:38:18;8.00;;;3.90;;
56581;SDS011;42463;52.214;21.238;2022-07-10T03:40:44;5.50;;;3.50;;
56581;SDS011;42463;52.214;21.238;2022-07-10T03:43:11;5.80;;;3.60;;
56581;SDS011;42463;52.214;21.238;2022-07-10T03:45:37;7.20;;;3.70;;
56581;SDS011;42463;52.214;21.238;2022-07-10T03:48:05;6.80;;;3.60;;
56581;SDS011;42463;52.214;21.238;2022-07-10T03:50:31;4.20;;;3.60;;
56581;SDS011;42463;52.214;21.238;2022-07-10T03:52:57;5.80;;;3.30;;
56581;SDS011;42463;52.214;21.238;2022-07-10T03:55:24;5.40;;;3.50;;
56581;SDS011;42463;52.214;21.238;2022-07-10T03:57:50;4.60;;;3.20;;
56581;SDS011;42463;52.214;21.238;2022-07-10T04:00:19;5.20;;;4.00;;
56581;SDS011;42463;52.214;21.238;2022-07-10T04:02:46;7.00;;;3.90;;
56581;SDS011;42463;52.214;21.238;2022-07-10T04:05:13;6.00;;;3.70;;
56581;SDS011;42463;52.214;21.238;2022-07-10T04:07:39;6.00;;;3.50;;
56581;SDS011;42463;52.214;21.238;2022-07-10T04:10:06;5.00;;;3.60;;
56581;SDS011;42463;52.214;21.238;2022-07-10T04:12:33;7.90;;;3.60;;
56581;SDS011;42463;52.214;21.238;2022-07-10T04:14:59;5.70;;;3.40;;
56581;SDS011;42463;52.214;21.238;2022-07-10T04:17:26;5.80;;;3.40;;
56581;SDS011;42463;52.214;21.238;2022-07-10T04:19:52;6.10;;;3.20;;
56581;SDS011;42463;52.214;21.238;2022-07-10T04:22:18;6.00;;;3.40;;
56581;SDS011;42463;52.214;21.238;2022-07-10T04:24:44;6.50;;;3.30;;
56581;SDS011;42463;52.214;21.238;2022-07-10T04:27:10;4.70;;;3.10;;
56581;SDS011;42463;52.214;21.238;2022-07-10T04:29:38;6.30;;;3.40;;
56581;SDS011;42463;52.214;21.238;2022-07-10T04:32:06;6.30;;;2.90;;
56581;SDS011;42463;52.214;21.238;2022-07-10T04:34:33;5.10;;;3.10;;
56581;SDS011;42463;52.214;21.238;2022-07-10T04:36:59;5.20;;;2.80;;
56581;SDS011;42463;52.214;21.238;2022-07-10T04:39:25;6.80;;;2.60;;
56581;SDS011;42463;52.214;21.238;2022-07-10T04:41:51;5.00;;;2.40;;
56581;SDS011;42463;52.214;21.238;2022-07-10T04:44:18;3.30;;;2.30;;
56581;SDS011;42463;52.214;21.238;2022-07-10T04:46:44;4.00;;;2.40;;
56581;SDS011;42463;52.214;21.238;2022-07-10T04:49:11;8.00;;;2.40;;
56581;SDS011;42463;52.214;21.238;2022-07-10T04:51:37;5.30;;;2.30;;
56581;SDS011;42463;52.214;21.238;2022-07-10T04:54:04;4.10;;;2.30;;
56581;SDS011;42463;52.214;21.238;2022-07-10T04:56:30;3.50;;;2.30;;
56581;SDS011;42463;52.214;21.238;2022-07-10T04:58:56;4.50;;;2.20;;
56581;SDS011;42463;52.214;21.238;2022-07-10T05:01:23;3.90;;;2.40;;
56581;SDS011;42463;52.214;21.238;2022-07-10T05:03:49;4.10;;;2.00;;
56581;SDS011;42463;52.214;21.238;2022-07-10T05:06:15;4.40;;;2.20;;
56581;SDS011;42463;52.214;21.238;2022-07-10T05:08:41;2.90;;;1.70;;
56581;SDS011;42463;52.214;21.238;2022-07-10T05:11:07;4.30;;;2.20;;
56581;SDS011;42463;52.214;21.238;2022-07-10T05:13:33;3.60;;;1.90;;
56581;SDS011;42463;52.214;21.238;2022-07-10T05:16:00;4.20;;;1.90;;
56581;SDS011;42463;52.214;21.238;2022-07-10T05:18:26;3.80;;;2.20;;
56581;SDS011;42463;52.214;21.238;2022-07-10T05:20:52;5.10;;;2.20;;
56581;SDS011;42463;52.214;21.238;2022-07-10T05:23:18;5.20;;;2.10;;
56581;SDS011;42463;52.214;21.238;2022-07-10T05:25:44;3.80;;;2.10;;
56581;SDS011;42463;52.214;21.238;2022-07-10T05:28:10;4.80;;;2.00;;
56581;SDS011;42463;52.214;21.238;2022-07-10T05:30:37;5.30;;;2.40;;
56581;SDS011;42463;52.214;21.238;2022-07-10T05:33:03;3.80;;;2.50;;
56581;SDS011;42463;52.214;21.238;2022-07-10T05:35:29;3.90;;;2.10;;
56581;SDS011;42463;52.214;21.238;2022-07-10T05:37:55;3.50;;;2.20;;
56581;SDS011;42463;52.214;21.238;2022-07-10T05:40:22;3.30;;;2.00;;
56581;SDS011;42463;52.214;21.238;2022-07-10T05:42:48;4.20;;;2.00;;
56581;SDS011;42463;52.214;21.238;2022-07-10T05:45:15;4.20;;;1.90;;
56581;SDS011;42463;52.214;21.238;2022-07-10T05:47:42;3.40;;;2.20;;
56581;SDS011;42463;52.214;21.238;2022-07-10T05:50:09;4.60;;;2.00;;
56581;SDS011;42463;52.214;21.238;2022-07-10T05:52:35;5.20;;;1.80;;
56581;SDS011;42463;52.214;21.238;2022-07-10T05:55:02;3.50;;;1.90;;
56581;SDS011;42463;52.214;21.238;2022-07-10T05:57:32;3.50;;;2.00;;
56581;SDS011;42463;52.214;21.238;2022-07-10T05:59:58;3.20;;;1.90;;
56581;SDS011;42463;52.214;21.238;2022-07-10T06:02:35;3.40;;;1.50;;
56581;SDS011;42463;52.214;21.238;2022-07-10T06:05:01;4.60;;;1.80;;
56581;SDS011;42463;52.214;21.238;2022-07-10T06:07:28;4.10;;;1.80;;
56581;SDS011;42463;52.214;21.238;2022-07-10T06:09:55;2.90;;;1.50;;
56581;SDS011;42463;52.214;21.238;2022-07-10T06:12:21;4.80;;;1.50;;
56581;SDS011;42463;52.214;21.238;2022-07-10T06:14:47;3.60;;;1.60;;
56581;SDS011;42463;52.214;21.238;2022-07-10T06:17:13;8.10;;;2.10;;
56581;SDS011;42463;52.214;21.238;2022-07-10T06:19:39;2.80;;;1.40;;
56581;SDS011;42463;52.214;21.238;2022-07-10T06:22:06;3.30;;;1.60;;
56581;SDS011;42463;52.214;21.238;2022-07-10T06:24:49;4.90;;;1.60;;
56581;SDS011;42463;52.214;21.238;2022-07-10T06:27:16;2.50;;;1.40;;
56581;SDS011;42463;52.214;21.238;2022-07-10T06:29:42;5.00;;;1.50;;
56581;SDS011;42463;52.214;21.238;2022-07-10T06:32:09;2.70;;;1.80;;
56581;SDS011;42463;52.214;21.238;2022-07-10T06:34:35;4.30;;;1.60;;
56581;SDS011;42463;52.214;21.238;2022-07-10T06:37:01;4.90;;;1.60;;
56581;SDS011;42463;52.214;21.238;2022-07-10T06:39:28;5.10;;;1.80;;
56581;SDS011;42463;52.214;21.238;2022-07-10T06:41:57;2.40;;;1.70;;
56581;SDS011;42463;52.214;21.238;2022-07-10T06:44:24;4.90;;;1.70;;
56581;SDS011;42463;52.214;21.238;2022-07-10T06:46:50;4.10;;;2.00;;
56581;SDS011;42463;52.214;21.238;2022-07-10T06:49:30;3.90;;;1.50;;
56581;SDS011;42463;52.214;21.238;2022-07-10T06:51:56;4.40;;;2.00;;
56581;SDS011;42463;52.214;21.238;2022-07-10T06:54:22;3.30;;;1.70;;
56581;SDS011;42463;52.214;21.238;2022-07-10T06:56:48;3.70;;;1.30;;
56581;SDS011;42463;52.214;21.238;2022-07-10T06:59:14;6.80;;;1.80;;
56581;SDS011;42463;52.214;21.238;2022-07-10T07:01:40;2.40;;;1.20;;
56581;SDS011;42463;52.214;21.238;2022-07-10T07:04:06;2.60;;;1.30;;
56581;SDS011;42463;52.214;21.238;2022-07-10T07:08:58;2.80;;;1.30;;
56581;SDS011;42463;52.214;21.238;2022-07-10T07:11:25;5.00;;;1.50;;
56581;SDS011;42463;52.214;21.238;2022-07-10T07:13:51;3.60;;;1.50;;
56581;SDS011;42463;52.214;21.238;2022-07-10T07:16:17;3.40;;;1.80;;
56581;SDS011;42463;52.214;21.238;2022-07-10T07:18:50;2.90;;;1.60;;
56581;SDS011;42463;52.214;21.238;2022-07-10T07:21:18;3.20;;;2.00;;
56581;SDS011;42463;52.214;21.238;2022-07-10T07:24:02;4.50;;;2.10;;
56581;SDS011;42463;52.214;21.238;2022-07-10T07:26:28;5.40;;;2.20;;
56581;SDS011;42463;52.214;21.238;2022-07-10T07:28:54;4.30;;;2.20;;
56581;SDS011;42463;52.214;21.238;2022-07-10T07:31:21;4.30;;;2.30;;
56581;SDS011;42463;52.214;21.238;2022-07-10T07:33:47;4.60;;;2.10;;
56581;SDS011;42463;52.214;21.238;2022-07-10T07:36:14;4.30;;;2.00;;
56581;SDS011;42463;52.214;21.238;2022-07-10T07:38:40;3.40;;;2.00;;
56581;SDS011;42463;52.214;21.238;2022-07-10T07:41:06;4.40;;;2.40;;
56581;SDS011;42463;52.214;21.238;2022-07-10T07:43:34;4.30;;;2.30;;
56581;SDS011;42463;52.214;21.238;2022-07-10T07:46:00;4.20;;;2.20;;
56581;SDS011;42463;52.214;21.238;2022-07-10T07:48:26;4.90;;;2.40;;
56581;SDS011;42463;52.214;21.238;2022-07-10T07:50:52;3.70;;;2.50;;
56581;SDS011;42463;52.214;21.238;2022-07-10T07:53:19;3.80;;;2.70;;
56581;SDS011;42463;52.214;21.238;2022-07-10T07:55:45;4.80;;;3.00;;
56581;SDS011;42463;52.214;21.238;2022-07-10T07:58:11;7.50;;;3.10;;
56581;SDS011;42463;52.214;21.238;2022-07-10T08:00:37;3.30;;;3.00;;
56581;SDS011;42463;52.214;21.238;2022-07-10T08:03:05;4.30;;;2.80;;
56581;SDS011;42463;52.214;21.238;2022-07-10T08:05:31;4.00;;;3.00;;
56581;SDS011;42463;52.214;21.238;2022-07-10T08:07:58;5.60;;;3.10;;
56581;SDS011;42463;52.214;21.238;2022-07-10T08:10:30;5.90;;;2.90;;
56581;SDS011;42463;52.214;21.238;2022-07-10T08:12:56;4.70;;;2.60;;
56581;SDS011;42463;52.214;21.238;2022-07-10T08:15:22;6.10;;;2.90;;
56581;SDS011;42463;52.214;21.238;2022-07-10T08:17:49;5.80;;;2.90;;
56581;SDS011;42463;52.214;21.238;2022-07-10T08:20:17;5.20;;;2.90;;
56581;SDS011;42463;52.214;21.238;2022-07-10T08:22:44;5.20;;;2.90;;
56581;SDS011;42463;52.214;21.238;2022-07-10T08:25:11;3.30;;;2.70;;
56581;SDS011;42463;52.214;21.238;2022-07-10T08:27:38;6.60;;;3.10;;
56581;SDS011;42463;52.214;21.238;2022-07-10T08:30:07;5.10;;;3.10;;
56581;SDS011;42463;52.214;21.238;2022-07-10T08:32:33;3.50;;;3.00;;
56581;SDS011;42463;52.214;21.238;2022-07-10T08:35:00;3.90;;;2.70;;
56581;SDS011;42463;52.214;21.238;2022-07-10T08:37:26;5.60;;;3.10;;
56581;SDS011;42463;52.214;21.238;2022-07-10T08:39:52;5.20;;;3.10;;
56581;SDS011;42463;52.214;21.238;2022-07-10T08:42:18;5.10;;;3.40;;
56581;SDS011;42463;52.214;21.238;2022-07-10T08:44:44;4.00;;;3.10;;
56581;SDS011;42463;52.214;21.238;2022-07-10T08:47:11;5.00;;;3.10;;
56581;SDS011;42463;52.214;21.238;2022-07-10T08:49:38;4.00;;;2.70;;
56581;SDS011;42463;52.214;21.238;2022-07-10T08:52:16;7.00;;;2.60;;
56581;SDS011;42463;52.214;21.238;2022-07-10T08:54:49;4.20;;;2.60;;
56581;SDS011;42463;52.214;21.238;2022-07-10T08:57:15;3.40;;;2.30;;
56581;SDS011;42463;52.214;21.238;2022-07-10T08:59:43;5.10;;;2.40;;
56581;SDS011;42463;52.214;21.238;2022-07-10T09:02:10;5.60;;;2.70;;
56581;SDS011;42463;52.214;21.238;2022-07-10T09:04:36;3.20;;;2.00;;
56581;SDS011;42463;52.214;21.238;2022-07-10T09:07:03;6.10;;;2.00;;
56581;SDS011;42463;52.214;21.238;2022-07-10T09:09:29;5.20;;;1.60;;
56581;SDS011;42463;52.214;21.238;2022-07-10T09:11:58;2.10;;;1.60;;
56581;SDS011;42463;52.214;21.238;2022-07-10T09:14:24;4.10;;;1.70;;
56581;SDS011;42463;52.214;21.238;2022-07-10T09:16:52;3.70;;;1.60;;
56581;SDS011;42463;52.214;21.238;2022-07-10T09:19:20;3.80;;;2.00;;
56581;SDS011;42463;52.214;21.238;2022-07-10T09:21:48;4.80;;;1.80;;
56581;SDS011;42463;52.214;21.238;2022-07-10T09:24:16;5.20;;;1.70;;
56581;SDS011;42463;52.214;21.238;2022-07-10T09:26:43;4.00;;;1.80;;
56581;SDS011;42463;52.214;21.238;2022-07-10T09:29:26;4.80;;;2.00;;
56581;SDS011;42463;52.214;21.238;2022-07-10T09:31:54;4.30;;;1.90;;
56581;SDS011;42463;52.214;21.238;2022-07-10T09:36:54;5.50;;;2.00;;
56581;SDS011;42463;52.214;21.238;2022-07-10T09:39:21;6.70;;;1.80;;
56581;SDS011;42463;52.214;21.238;2022-07-10T09:41:48;5.00;;;1.70;;
56581;SDS011;42463;52.214;21.238;2022-07-10T09:44:14;3.70;;;1.90;;
56581;SDS011;42463;52.214;21.238;2022-07-10T09:46:40;2.40;;;1.70;;
56581;SDS011;42463;52.214;21.238;2022-07-10T09:49:08;3.50;;;1.80;;
56581;SDS011;42463;52.214;21.238;2022-07-10T09:51:36;4.50;;;2.50;;
56581;SDS011;42463;52.214;21.238;2022-07-10T09:54:04;4.10;;;1.70;;
56581;SDS011;42463;52.214;21.238;2022-07-10T09:56:37;4.50;;;1.80;;
56581;SDS011;42463;52.214;21.238;2022-07-10T09:59:08;2.80;;;2.00;;
56581;SDS011;42463;52.214;21.238;2022-07-10T10:01:37;3.20;;;2.30;;
56581;SDS011;42463;52.214;21.238;2022-07-10T10:04:09;5.60;;;2.40;;
56581;SDS011;42463;52.214;21.238;2022-07-10T10:06:37;5.10;;;2.60;;
56581;SDS011;42463;52.214;21.238;2022-07-10T10:09:07;6.10;;;2.30;;
56581;SDS011;42463;52.214;21.238;2022-07-10T10:11:36;3.60;;;2.00;;
56581;SDS011;42463;52.214;21.238;2022-07-10T10:14:05;4.10;;;2.30;;
56581;SDS011;42463;52.214;21.238;2022-07-10T10:16:32;2.60;;;2.40;;
56581;SDS011;42463;52.214;21.238;2022-07-10T10:18:59;5.70;;;2.40;;
56581;SDS011;42463;52.214;21.238;2022-07-10T10:21:44;3.80;;;2.20;;
56581;SDS011;42463;52.214;21.238;2022-07-10T10:24:11;2.90;;;1.80;;
56581;SDS011;42463;52.214;21.238;2022-07-10T10:26:37;4.00;;;2.10;;
56581;SDS011;42463;52.214;21.238;2022-07-10T10:29:04;3.80;;;2.20;;
56581;SDS011;42463;52.214;21.238;2022-07-10T10:31:32;4.70;;;1.90;;
56581;SDS011;42463;52.214;21.238;2022-07-10T10:33:59;2.80;;;1.50;;
56581;SDS011;42463;52.214;21.238;2022-07-10T10:36:46;5.20;;;1.50;;
56581;SDS011;42463;52.214;21.238;2022-07-10T10:39:14;3.30;;;1.80;;
56581;SDS011;42463;52.214;21.238;2022-07-10T10:41:46;3.00;;;1.30;;
56581;SDS011;42463;52.214;21.238;2022-07-10T10:44:27;3.70;;;1.40;;
56581;SDS011;42463;52.214;21.238;2022-07-10T10:46:59;3.20;;;1.60;;
56581;SDS011;42463;52.214;21.238;2022-07-10T10:52:14;4.20;;;1.60;;
56581;SDS011;42463;52.214;21.238;2022-07-10T10:55:00;4.20;;;1.50;;
56581;SDS011;42463;52.214;21.238;2022-07-10T10:57:40;3.90;;;1.60;;
56581;SDS011;42463;52.214;21.238;2022-07-10T11:00:29;1.90;;;1.20;;
56581;SDS011;42463;52.214;21.238;2022-07-10T11:03:15;4.70;;;1.60;;
56581;SDS011;42463;52.214;21.238;2022-07-10T11:05:44;2.90;;;1.10;;
56581;SDS011;42463;52.214;21.238;2022-07-10T11:08:12;2.50;;;1.20;;
56581;SDS011;42463;52.214;21.238;2022-07-10T11:10:59;1.70;;;1.10;;
56581;SDS011;42463;52.214;21.238;2022-07-10T11:13:26;2.40;;;1.20;;
56581;SDS011;42463;52.214;21.238;2022-07-10T11:15:54;1.80;;;1.00;;
56581;SDS011;42463;52.214;21.238;2022-07-10T11:18:21;1.50;;;0.80;;
56581;SDS011;42463;52.214;21.238;2022-07-10T11:20:52;1.10;;;0.70;;
56581;SDS011;42463;52.214;21.238;2022-07-10T11:26:22;1.40;;;0.70;;
56581;SDS011;42463;52.214;21.238;2022-07-10T11:28:55;1.40;;;0.80;;
56581;SDS011;42463;52.214;21.238;2022-07-10T11:31:24;2.80;;;0.90;;
56581;SDS011;42463;52.214;21.238;2022-07-10T11:33:53;2.50;;;1.30;;
56581;SDS011;42463;52.214;21.238;2022-07-10T11:36:21;1.90;;;1.10;;
56581;SDS011;42463;52.214;21.238;2022-07-10T11:38:57;3.30;;;1.40;;
56581;SDS011;42463;52.214;21.238;2022-07-10T11:41:24;2.20;;;1.20;;
56581;SDS011;42463;52.214;21.238;2022-07-10T11:43:52;2.30;;;1.40;;
56581;SDS011;42463;52.214;21.238;2022-07-10T11:46:22;1.80;;;1.20;;
56581;SDS011;42463;52.214;21.238;2022-07-10T11:48:49;2.40;;;1.20;;
56581;SDS011;42463;52.214;21.238;2022-07-10T11:51:22;1.60;;;1.00;;
56581;SDS011;42463;52.214;21.238;2022-07-10T11:53:56;2.60;;;1.20;;
56581;SDS011;42463;52.214;21.238;2022-07-10T11:56:28;2.80;;;1.20;;
56581;SDS011;42463;52.214;21.238;2022-07-10T11:58:57;3.20;;;1.00;;
56581;SDS011;42463;52.214;21.238;2022-07-10T12:01:25;4.60;;;1.20;;
56581;SDS011;42463;52.214;21.238;2022-07-10T12:04:00;2.60;;;0.90;;
56581;SDS011;42463;52.214;21.238;2022-07-10T12:06:27;3.10;;;1.00;;
56581;SDS011;42463;52.214;21.238;2022-07-10T12:08:54;2.70;;;0.90;;
56581;SDS011;42463;52.214;21.238;2022-07-10T12:11:25;4.00;;;1.30;;
56581;SDS011;42463;52.214;21.238;2022-07-10T12:13:52;2.70;;;0.90;;
56581;SDS011;42463;52.214;21.238;2022-07-10T12:16:35;1.80;;;0.80;;
56581;SDS011;42463;52.214;21.238;2022-07-10T12:19:02;1.90;;;0.90;;
56581;SDS011;42463;52.214;21.238;2022-07-10T12:21:30;3.50;;;1.00;;
56581;SDS011;42463;52.214;21.238;2022-07-10T12:23:57;3.40;;;0.80;;
56581;SDS011;42463;52.214;21.238;2022-07-10T12:26:25;2.60;;;1.00;;
56581;SDS011;42463;52.214;21.238;2022-07-10T12:28:57;3.10;;;1.10;;
56581;SDS011;42463;52.214;21.238;2022-07-10T12:31:27;3.20;;;0.90;;
56581;SDS011;42463;52.214;21.238;2022-07-10T12:33:56;4.70;;;1.20;;
56581;SDS011;42463;52.214;21.238;2022-07-10T12:36:25;3.40;;;1.30;;
56581;SDS011;42463;52.214;21.238;2022-07-10T12:39:04;5.10;;;1.30;;
56581;SDS011;42463;52.214;21.238;2022-07-10T12:41:30;3.00;;;1.30;;
56581;SDS011;42463;52.214;21.238;2022-07-10T12:43:57;4.20;;;1.80;;
56581;SDS011;42463;52.214;21.238;2022-07-10T12:46:23;3.10;;;1.30;;
56581;SDS011;42463;52.214;21.238;2022-07-10T12:49:06;3.10;;;1.20;;
56581;SDS011;42463;52.214;21.238;2022-07-10T12:51:42;3.10;;;1.60;;
56581;SDS011;42463;52.214;21.238;2022-07-10T12:54:35;3.00;;;1.80;;
56581;SDS011;42463;52.214;21.238;2022-07-10T12:57:02;3.50;;;1.50;;
56581;SDS011;42463;52.214;21.238;2022-07-10T12:59:31;2.30;;;1.30;;
56581;SDS011;42463;52.214;21.238;2022-07-10T13:01:59;2.60;;;1.30;;
56581;SDS011;42463;52.214;21.238;2022-07-10T13:04:40;1.90;;;1.20;;
56581;SDS011;42463;52.214;21.238;2022-07-10T13:07:16;1.20;;;1.00;;
56581;SDS011;42463;52.214;21.238;2022-07-10T13:09:42;2.00;;;1.60;;
56581;SDS011;42463;52.214;21.238;2022-07-10T13:12:10;1.10;;;1.00;;
56581;SDS011;42463;52.214;21.238;2022-07-10T13:14:36;2.90;;;1.10;;
56581;SDS011;42463;52.214;21.238;2022-07-10T13:17:03;1.60;;;1.40;;
56581;SDS011;42463;52.214;21.238;2022-07-10T13:19:29;2.70;;;1.80;;
56581;SDS011;42463;52.214;21.238;2022-07-10T13:21:56;2.20;;;1.40;;
56581;SDS011;42463;52.214;21.238;2022-07-10T13:24:22;2.30;;;1.20;;
56581;SDS011;42463;52.214;21.238;2022-07-10T13:26:50;1.80;;;1.10;;
56581;SDS011;42463;52.214;21.238;2022-07-10T13:29:19;3.20;;;1.50;;
56581;SDS011;42463;52.214;21.238;2022-07-10T13:31:45;2.10;;;1.60;;
56581;SDS011;42463;52.214;21.238;2022-07-10T13:34:11;3.30;;;1.50;;
56581;SDS011;42463;52.214;21.238;2022-07-10T13:36:37;3.20;;;1.60;;
56581;SDS011;42463;52.214;21.238;2022-07-10T13:39:03;2.00;;;1.40;;
56581;SDS011;42463;52.214;21.238;2022-07-10T13:41:29;2.80;;;1.60;;
56581;SDS011;42463;52.214;21.238;2022-07-10T13:43:55;5.10;;;1.80;;
56581;SDS011;42463;52.214;21.238;2022-07-10T13:46:21;6.00;;;2.30;;
56581;SDS011;42463;52.214;21.238;2022-07-10T13:48:47;5.70;;;1.60;;
56581;SDS011;42463;52.214;21.238;2022-07-10T13:51:13;7.10;;;2.30;;
56581;SDS011;42463;52.214;21.238;2022-07-10T13:53:39;4.60;;;2.00;;
56581;SDS011;42463;52.214;21.238;2022-07-10T13:56:08;3.40;;;1.40;;
56581;SDS011;42463;52.214;21.238;2022-07-10T13:58:35;2.10;;;1.20;;
56581;SDS011;42463;52.214;21.238;2022-07-10T14:01:01;2.40;;;1.30;;
56581;SDS011;42463;52.214;21.238;2022-07-10T14:03:28;1.80;;;1.40;;
56581;SDS011;42463;52.214;21.238;2022-07-10T14:05:54;1.60;;;1.10;;
56581;SDS011;42463;52.214;21.238;2022-07-10T14:08:21;1.20;;;1.10;;
56581;SDS011;42463;52.214;21.238;2022-07-10T14:10:47;1.10;;;1.00;;
56581;SDS011;42463;52.214;21.238;2022-07-10T14:13:15;1.80;;;1.50;;
56581;SDS011;42463;52.214;21.238;2022-07-10T14:15:42;1.70;;;1.20;;
56581;SDS011;42463;52.214;21.238;2022-07-10T14:18:08;1.30;;;1.20;;
56581;SDS011;42463;52.214;21.238;2022-07-10T14:20:34;1.60;;;1.20;;
56581;SDS011;42463;52.214;21.238;2022-07-10T14:23:15;3.20;;;1.70;;
56581;SDS011;42463;52.214;21.238;2022-07-10T14:25:41;3.30;;;2.00;;
56581;SDS011;42463;52.214;21.238;2022-07-10T14:28:07;2.30;;;1.70;;
56581;SDS011;42463;52.214;21.238;2022-07-10T14:30:36;2.40;;;1.80;;
56581;SDS011;42463;52.214;21.238;2022-07-10T14:33:02;3.40;;;1.80;;
56581;SDS011;42463;52.214;21.238;2022-07-10T14:35:28;3.60;;;1.50;;
56581;SDS011;42463;52.214;21.238;2022-07-10T14:37:54;3.20;;;1.70;;
56581;SDS011;42463;52.214;21.238;2022-07-10T14:40:21;2.40;;;1.70;;
56581;SDS011;42463;52.214;21.238;2022-07-10T14:42:47;6.40;;;2.50;;
56581;SDS011;42463;52.214;21.238;2022-07-10T14:45:14;2.60;;;1.70;;
56581;SDS011;42463;52.214;21.238;2022-07-10T14:47:41;2.80;;;1.80;;